createdAt,value
2023-07-14T00:01:49.018Z,16.40
2023-07-14T00:04:20.920Z,14.77
2023-07-14T00:06:48.450Z,15.85
2023-07-14T00:09:26.824Z,15.68
2023-07-14T00:11:54.444Z,17.33
2023-07-14T00:14:22.414Z,20.23
2023-07-14T00:16:49.820Z,18.45
2023-07-14T00:19:19.143Z,19.42
2023-07-14T00:21:47.614Z,24.02
2023-07-14T00:24:17.683Z,23.17
2023-07-14T00:26:48.910Z,23.20
2023-07-14T00:29:25.225Z,24.00
2023-07-14T00:31:52.818Z,21.85
2023-07-14T00:34:19.984Z,25.27
2023-07-14T00:36:47.070Z,24.88
2023-07-14T00:39:14.148Z,25.55
2023-07-14T00:41:43.395Z,23.65
2023-07-14T00:44:15.656Z,31.95
2023-07-14T00:46:45.475Z,27.38
2023-07-14T00:49:38.132Z,26.27
2023-07-14T00:52:32.350Z,29.63
2023-07-14T00:54:59.926Z,38.28
2023-07-14T00:57:29.976Z,39.83
2023-07-14T01:00:01.061Z,41.83
2023-07-14T01:02:29.722Z,43.80
2023-07-14T01:05:05.016Z,37.63
2023-07-14T01:07:37.798Z,35.70
2023-07-14T01:10:07.293Z,24.38
2023-07-14T01:12:38.566Z,26.35
2023-07-14T01:15:08.598Z,20.27
2023-07-14T01:17:37.821Z,21.58
2023-07-14T01:20:11.196Z,40.28
2023-07-14T01:22:43.414Z,42.83
2023-07-14T01:25:16.021Z,31.75
2023-07-14T01:27:47.581Z,23.03
2023-07-14T01:30:16.837Z,23.80
2023-07-14T01:32:47.671Z,26.08
2023-07-14T01:35:17.740Z,20.75
2023-07-14T01:37:46.188Z,22.92
2023-07-14T01:40:19.682Z,24.42
2023-07-14T01:42:54.372Z,20.83
2023-07-14T01:45:23.869Z,21.85
2023-07-14T01:47:55.690Z,21.10
2023-07-14T01:50:38.892Z,20.90
2023-07-14T01:53:18.002Z,17.70
2023-07-14T01:55:48.294Z,15.88
2023-07-14T01:58:21.001Z,17.67
2023-07-14T02:00:51.165Z,19.55
2023-07-14T02:03:28.849Z,17.85
2023-07-14T02:05:56.663Z,18.48
2023-07-14T02:08:27.477Z,17.65
2023-07-14T02:10:54.782Z,18.23
2023-07-14T02:13:24.632Z,18.77
2023-07-14T02:15:54.070Z,19.73
2023-07-14T02:18:27.160Z,17.80
2023-07-14T02:20:56.970Z,17.15
2023-07-14T02:23:27.758Z,17.95
2023-07-14T02:26:07.002Z,16.70
2023-07-14T02:28:35.779Z,18.70
2023-07-14T02:31:40.245Z,17.80
2023-07-14T02:34:13.066Z,17.40
2023-07-14T02:36:55.457Z,16.98
2023-07-14T02:39:23.342Z,16.55
2023-07-14T02:41:54.882Z,16.55
2023-07-14T02:44:28.144Z,17.40
2023-07-14T02:46:58.593Z,17.20
2023-07-14T02:49:27.702Z,18.23
2023-07-14T02:51:56.422Z,18.75
2023-07-14T02:54:25.961Z,18.95
2023-07-14T02:56:53.527Z,18.23
2023-07-14T02:59:21.352Z,17.58
2023-07-14T03:01:48.855Z,16.17
2023-07-14T03:04:16.115Z,15.98
2023-07-14T03:06:44.608Z,18.35
2023-07-14T03:09:13.776Z,20.88
2023-07-14T03:11:40.940Z,17.83
2023-07-14T03:14:09.380Z,22.30
2023-07-14T03:16:37.324Z,21.95
2023-07-14T03:19:04.564Z,28.08
2023-07-14T03:21:31.674Z,23.75
2023-07-14T03:24:00.307Z,21.70
2023-07-14T03:26:27.728Z,23.48
2023-07-14T03:28:55.053Z,23.17
2023-07-14T03:31:22.208Z,19.88
2023-07-14T03:33:49.312Z,20.58
2023-07-14T03:36:21.487Z,18.50
2023-07-14T03:39:26.170Z,18.40
2023-07-14T03:41:55.473Z,16.95
2023-07-14T03:44:23.302Z,16.63
2023-07-14T03:46:50.724Z,16.65
2023-07-14T03:49:18.426Z,20.23
2023-07-14T03:51:45.858Z,19.58
2023-07-14T03:54:13.521Z,20.23
2023-07-14T03:56:41.984Z,21.73
2023-07-14T03:59:09.434Z,22.17
2023-07-14T04:01:38.850Z,21.13
2023-07-14T04:04:06.064Z,21.23
2023-07-14T04:06:33.394Z,21.30
2023-07-14T04:09:02.368Z,22.63
2023-07-14T04:11:34.448Z,23.38
2023-07-14T04:14:03.365Z,23.95
2023-07-14T04:16:30.935Z,21.48
2023-07-14T04:18:58.168Z,20.50
2023-07-14T04:21:26.180Z,19.88
2023-07-14T04:23:54.359Z,20.08
2023-07-14T04:26:22.072Z,20.35
2023-07-14T04:28:50.055Z,17.17
2023-07-14T04:31:19.130Z,16.98
2023-07-14T04:33:48.205Z,15.52
2023-07-14T04:36:16.493Z,16.17
2023-07-14T04:38:59.957Z,16.13
2023-07-14T04:41:27.273Z,15.10
2023-07-14T04:43:54.600Z,15.80
2023-07-14T04:46:21.793Z,14.70
2023-07-14T04:48:49.671Z,15.60
2023-07-14T04:51:16.735Z,15.25
2023-07-14T04:53:44.184Z,15.63
2023-07-14T04:56:11.651Z,14.00
2023-07-14T04:58:38.945Z,13.50
2023-07-14T05:01:06.141Z,11.35
2023-07-14T05:03:33.441Z,10.02
2023-07-14T05:06:00.840Z,9.85
2023-07-14T05:08:27.996Z,9.45
2023-07-14T05:10:55.154Z,8.57
2023-07-14T05:13:22.449Z,8.55
2023-07-14T05:15:49.837Z,7.30
2023-07-14T05:18:18.265Z,8.32
2023-07-14T05:20:45.584Z,7.43
2023-07-14T05:23:12.762Z,8.63
2023-07-14T05:25:40.317Z,8.10
2023-07-14T05:28:07.825Z,8.38
2023-07-14T05:30:35.245Z,8.20
2023-07-14T05:33:02.780Z,7.93
2023-07-14T05:35:29.979Z,7.45
2023-07-14T05:37:57.943Z,8.02
2023-07-14T05:40:25.372Z,8.38
2023-07-14T05:42:52.577Z,7.43
2023-07-14T05:45:19.777Z,7.07
2023-07-14T05:47:48.306Z,5.40
2023-07-14T05:50:16.711Z,5.03
2023-07-14T05:52:45.338Z,4.18
2023-07-14T05:55:12.752Z,4.15
2023-07-14T05:57:40.000Z,3.53
2023-07-14T06:00:14.679Z,3.83
2023-07-14T06:02:42.930Z,3.55
2023-07-14T06:05:10.917Z,2.80
2023-07-14T06:07:38.994Z,2.63
2023-07-14T06:10:06.942Z,3.92
2023-07-14T06:12:34.509Z,3.10
2023-07-14T06:15:02.437Z,3.67
2023-07-14T06:17:30.267Z,3.05
2023-07-14T06:19:57.362Z,3.70
2023-07-14T06:22:24.959Z,4.07
2023-07-14T06:24:52.776Z,3.33
2023-07-14T06:27:20.114Z,3.13
2023-07-14T06:29:47.308Z,4.05
2023-07-14T06:32:16.738Z,3.00
2023-07-14T06:34:44.878Z,4.35
2023-07-14T06:37:12.035Z,3.72
2023-07-14T06:39:39.204Z,3.58
2023-07-14T06:42:06.703Z,3.67
2023-07-14T06:44:33.863Z,3.67
2023-07-14T06:47:01.007Z,2.83
2023-07-14T06:49:29.375Z,3.63
2023-07-14T06:51:57.322Z,3.67
2023-07-14T06:54:24.745Z,3.83
2023-07-14T06:56:51.842Z,2.95
2023-07-14T06:59:18.958Z,3.10
2023-07-14T07:01:46.082Z,2.22
2023-07-14T07:04:13.193Z,2.10
2023-07-14T07:06:40.340Z,2.20
2023-07-14T07:09:07.847Z,1.88
2023-07-14T07:11:35.140Z,2.17
2023-07-14T07:14:02.390Z,1.70
2023-07-14T07:16:29.634Z,2.58
2023-07-14T07:18:57.948Z,1.50
2023-07-14T07:21:25.006Z,2.50
2023-07-14T07:23:52.241Z,2.72
2023-07-14T07:26:19.357Z,1.30
2023-07-14T07:28:47.494Z,1.60
2023-07-14T07:31:16.051Z,1.33
2023-07-14T07:33:44.045Z,1.63
2023-07-14T07:36:18.317Z,1.40
2023-07-14T07:38:47.878Z,1.38
2023-07-14T07:41:16.223Z,1.45
2023-07-14T07:43:44.557Z,1.38
2023-07-14T07:46:12.492Z,1.70
2023-07-14T07:48:40.996Z,1.48
2023-07-14T07:51:08.186Z,1.60
2023-07-14T07:53:35.887Z,2.58
2023-07-14T07:56:03.647Z,1.85
2023-07-14T07:58:31.771Z,2.13
2023-07-14T08:01:04.225Z,2.67
2023-07-14T08:03:32.634Z,2.33
2023-07-14T08:06:06.113Z,2.47
2023-07-14T08:08:34.568Z,2.33
2023-07-14T08:11:02.859Z,3.22
2023-07-14T08:13:31.107Z,2.53
2023-07-14T08:15:59.104Z,2.17
2023-07-14T08:18:27.218Z,2.60
2023-07-14T08:20:54.911Z,2.88
2023-07-14T08:23:26.140Z,3.05
2023-07-14T08:26:00.355Z,2.58
2023-07-14T08:28:28.732Z,2.75
2023-07-14T08:30:59.308Z,2.53
2023-07-14T08:33:26.882Z,2.50
2023-07-14T08:35:55.207Z,2.47
2023-07-14T08:38:23.526Z,2.33
2023-07-14T08:40:55.602Z,2.80
2023-07-14T08:43:29.594Z,2.70
2023-07-14T08:46:15.530Z,2.70
2023-07-14T08:48:54.139Z,2.70
2023-07-14T08:51:35.855Z,2.78
2023-07-14T08:54:24.093Z,3.03
2023-07-14T08:56:53.052Z,2.40
2023-07-14T08:59:47.177Z,3.00
2023-07-14T09:02:44.565Z,3.30
2023-07-14T09:05:29.889Z,2.78
2023-07-14T09:07:57.347Z,2.92
2023-07-14T09:10:51.216Z,2.53
2023-07-14T09:13:30.213Z,3.03
2023-07-14T09:15:58.013Z,2.85
2023-07-14T09:18:55.020Z,3.38
2023-07-14T09:21:32.210Z,3.30
2023-07-14T09:24:02.256Z,3.25
2023-07-14T09:26:39.803Z,2.72
2023-07-14T09:29:38.201Z,2.67
2023-07-14T09:32:54.978Z,3.30
2023-07-14T09:35:30.310Z,2.75
2023-07-14T09:38:15.313Z,2.72
2023-07-14T09:40:45.110Z,2.42
2023-07-14T09:43:12.927Z,2.88
2023-07-14T09:45:42.042Z,2.78
2023-07-14T09:48:21.375Z,2.97
2023-07-14T09:51:33.477Z,2.45
2023-07-14T09:54:03.228Z,2.72
2023-07-14T09:56:36.398Z,2.92
2023-07-14T09:59:07.328Z,3.53
2023-07-14T10:01:34.632Z,2.85
2023-07-14T10:04:16.033Z,2.58
2023-07-14T10:06:43.696Z,3.55
2023-07-14T10:09:13.034Z,2.80
2023-07-14T10:11:41.698Z,2.38
2023-07-14T10:14:18.270Z,2.17
2023-07-14T10:16:46.439Z,2.80
2023-07-14T10:19:17.009Z,2.88
2023-07-14T10:22:14.938Z,2.40
2023-07-14T10:24:47.635Z,2.17
2023-07-14T10:27:29.461Z,3.00
2023-07-14T10:29:59.374Z,2.50
2023-07-14T10:32:52.482Z,3.50
2023-07-14T10:35:21.386Z,2.50
2023-07-14T10:37:57.950Z,2.45
2023-07-14T10:40:28.770Z,2.55
2023-07-14T10:43:04.350Z,2.28
2023-07-14T10:45:35.713Z,3.15
2023-07-14T10:48:05.688Z,2.85
2023-07-14T10:50:44.689Z,2.67
2023-07-14T10:53:23.630Z,2.47
2023-07-14T10:55:53.765Z,2.95
2023-07-14T10:58:23.360Z,2.97
2023-07-14T11:01:03.397Z,2.35
2023-07-14T11:03:39.322Z,3.88
2023-07-14T11:06:38.051Z,2.70
2023-07-14T11:09:13.691Z,3.63
2023-07-14T11:11:52.473Z,3.20
2023-07-14T11:14:47.334Z,2.50
2023-07-14T11:17:29.596Z,3.10
2023-07-14T11:20:05.342Z,2.95
2023-07-14T11:23:00.215Z,3.15
2023-07-14T11:25:44.280Z,3.45
2023-07-14T11:28:45.231Z,3.60
2023-07-14T11:31:28.204Z,2.92
2023-07-14T11:34:14.748Z,3.55
2023-07-14T11:36:58.571Z,2.50
2023-07-14T11:39:35.134Z,3.00
2023-07-14T11:42:03.045Z,3.47
2023-07-14T11:44:30.589Z,2.45
2023-07-14T11:46:59.984Z,3.22
2023-07-14T11:49:35.873Z,2.35
2023-07-14T11:52:20.898Z,3.00
2023-07-14T11:55:31.236Z,3.03
2023-07-14T11:58:25.023Z,2.42
2023-07-14T12:01:02.059Z,3.38
2023-07-14T12:03:35.862Z,2.72
2023-07-14T12:09:05.845Z,3.17
2023-07-14T12:11:43.626Z,3.25
2023-07-14T12:14:32.056Z,2.50
2023-07-14T12:17:00.998Z,2.15
2023-07-14T12:19:35.128Z,2.20
2023-07-14T12:22:09.541Z,2.40
2023-07-14T12:24:44.356Z,3.63
2023-07-14T12:27:33.851Z,2.60
2023-07-14T12:30:23.458Z,2.45
2023-07-14T12:32:55.573Z,2.78
2023-07-14T12:35:26.305Z,3.55
2023-07-14T12:37:53.684Z,2.50
2023-07-14T12:40:25.669Z,3.05
2023-07-14T12:42:54.134Z,2.90
2023-07-14T12:45:22.121Z,2.53
2023-07-14T12:47:53.332Z,2.25
2023-07-14T12:50:27.730Z,2.55
2023-07-14T12:55:27.410Z,3.33
2023-07-14T12:57:54.586Z,2.45
2023-07-14T13:00:27.209Z,3.13
2023-07-14T13:02:56.170Z,2.20
2023-07-14T13:05:30.069Z,2.63
2023-07-14T13:07:57.307Z,3.15
2023-07-14T13:10:32.641Z,2.65
2023-07-14T13:12:59.627Z,2.88
2023-07-14T13:15:29.687Z,2.67
2023-07-14T13:18:04.673Z,3.00
2023-07-14T13:20:39.731Z,2.20
2023-07-14T13:23:21.267Z,3.05
2023-07-14T13:26:06.593Z,2.67
2023-07-14T13:28:55.456Z,2.78
2023-07-14T13:31:28.636Z,3.13
2023-07-14T13:33:59.074Z,2.72
2023-07-14T13:36:28.776Z,2.78
2023-07-14T13:38:57.012Z,3.10
2023-07-14T13:41:29.108Z,3.35
2023-07-14T13:44:31.091Z,2.83
2023-07-14T13:47:22.433Z,2.45
2023-07-14T13:49:52.425Z,3.22
2023-07-14T13:52:22.277Z,2.80
2023-07-14T13:54:55.398Z,2.30
2023-07-14T13:57:23.030Z,2.63
2023-07-14T13:59:50.005Z,3.28
2023-07-14T14:02:36.608Z,2.90
2023-07-14T14:05:07.604Z,3.05
2023-07-14T14:07:35.144Z,2.35
2023-07-14T14:10:02.747Z,2.75
2023-07-14T14:12:29.891Z,2.58
2023-07-14T14:14:57.030Z,3.20
2023-07-14T14:17:45.678Z,2.72
2023-07-14T14:20:24.690Z,3.03
2023-07-14T14:22:54.011Z,3.28
2023-07-14T14:25:24.446Z,2.95
2023-07-14T14:27:53.286Z,2.65
2023-07-14T14:30:22.917Z,3.08
2023-07-14T14:32:50.054Z,2.15
2023-07-14T14:35:33.258Z,2.90
2023-07-14T14:38:06.455Z,2.70
2023-07-14T14:40:36.161Z,2.50
2023-07-14T14:43:26.878Z,2.03
2023-07-14T14:45:55.959Z,3.17
2023-07-14T14:48:39.284Z,2.17
2023-07-14T14:51:12.902Z,3.10
2023-07-14T14:53:40.336Z,2.85
2023-07-14T14:56:13.648Z,2.50
2023-07-14T14:58:41.003Z,2.40
2023-07-14T15:01:18.587Z,2.22
2023-07-14T15:03:46.224Z,3.65
2023-07-14T15:06:13.736Z,2.63
2023-07-14T15:08:40.911Z,2.30
2023-07-14T15:11:11.329Z,2.38
2023-07-14T15:13:38.593Z,2.70
2023-07-14T15:16:06.419Z,2.70
2023-07-14T15:18:33.659Z,2.50
2023-07-14T15:21:00.885Z,2.22
2023-07-14T15:23:27.915Z,3.53
2023-07-14T15:25:57.345Z,2.30
2023-07-14T15:28:26.927Z,2.90
2023-07-14T15:30:55.350Z,2.90
2023-07-14T15:33:22.526Z,2.17
2023-07-14T15:35:57.987Z,3.00
2023-07-14T15:38:25.418Z,2.60
2023-07-14T15:40:52.699Z,2.92
2023-07-14T15:43:19.892Z,2.53
2023-07-14T15:45:51.637Z,2.92
2023-07-14T15:48:41.084Z,2.33
2023-07-14T15:51:21.841Z,2.67
2023-07-14T15:53:50.175Z,2.40
2023-07-14T15:56:24.400Z,2.63
2023-07-14T15:58:51.509Z,2.83
2023-07-14T16:01:28.594Z,3.50
2023-07-14T16:04:00.281Z,2.15
2023-07-14T16:06:27.538Z,2.47
2023-07-14T16:08:56.759Z,2.30
2023-07-14T16:11:38.569Z,2.72
2023-07-14T16:14:08.997Z,2.95
2023-07-14T16:16:36.461Z,2.65
2023-07-14T16:19:03.576Z,2.67
2023-07-14T16:21:35.859Z,4.10
2023-07-14T16:24:03.924Z,3.03
2023-07-14T16:26:31.548Z,2.72
2023-07-14T16:28:58.717Z,3.20
2023-07-14T16:31:26.698Z,3.10
2023-07-14T16:33:53.925Z,2.75
2023-07-14T16:36:28.309Z,2.78
2023-07-14T16:39:02.627Z,3.08
2023-07-14T16:41:31.469Z,3.53
2023-07-14T16:43:58.735Z,2.55
2023-07-14T16:46:32.295Z,2.88
2023-07-14T16:48:59.877Z,3.25
2023-07-14T16:51:29.139Z,2.78
2023-07-14T16:53:57.510Z,2.65
2023-07-14T16:56:24.760Z,3.03
2023-07-14T16:58:51.898Z,2.72
2023-07-14T17:01:21.727Z,2.47
2023-07-14T17:03:49.085Z,2.58
2023-07-14T17:06:16.707Z,4.68
2023-07-14T17:08:44.836Z,3.35
2023-07-14T17:11:14.540Z,3.03
2023-07-14T17:13:43.630Z,3.30
2023-07-14T17:16:12.250Z,3.13
2023-07-14T17:18:41.197Z,3.30
2023-07-14T17:21:10.384Z,3.97
2023-07-14T17:23:39.232Z,3.85
2023-07-14T17:26:06.976Z,3.35
2023-07-14T17:28:34.368Z,3.70
2023-07-14T17:31:02.531Z,3.22
2023-07-14T17:33:30.845Z,3.47
2023-07-14T17:36:01.682Z,3.33
2023-07-14T17:38:31.109Z,3.75
2023-07-14T17:40:58.361Z,3.25
2023-07-14T17:43:25.440Z,3.25
2023-07-14T17:45:52.504Z,3.40
2023-07-14T17:48:19.608Z,3.35
2023-07-14T17:50:55.585Z,3.63
2023-07-14T17:53:25.048Z,3.33
2023-07-14T17:55:52.974Z,3.20
2023-07-14T17:58:23.179Z,3.85
2023-07-14T18:00:50.554Z,3.70
2023-07-14T18:03:36.078Z,3.22
2023-07-14T18:06:03.291Z,3.08
2023-07-14T18:08:30.715Z,4.15
2023-07-14T18:11:02.816Z,3.28
2023-07-14T18:13:40.338Z,3.40
2023-07-14T18:16:11.890Z,3.67
2023-07-14T18:18:40.404Z,3.38
2023-07-14T18:21:12.307Z,3.53
2023-07-14T18:23:39.896Z,3.63
2023-07-14T18:26:07.168Z,4.60
2023-07-14T18:28:34.522Z,4.10
2023-07-14T18:31:02.432Z,3.88
2023-07-14T18:33:32.542Z,4.00
2023-07-14T18:35:59.713Z,5.18
2023-07-14T18:38:28.316Z,4.07
2023-07-14T18:40:58.641Z,4.10
2023-07-14T18:43:35.054Z,4.05
2023-07-14T18:46:03.979Z,4.35
2023-07-14T18:48:32.269Z,4.43
2023-07-14T18:51:14.103Z,4.60
2023-07-14T18:53:41.481Z,3.85
2023-07-14T18:56:10.241Z,3.50
2023-07-14T18:58:38.347Z,4.03
2023-07-14T19:01:08.422Z,3.63
2023-07-14T19:03:37.971Z,4.70
2023-07-14T19:06:07.427Z,4.25
2023-07-14T19:08:35.008Z,4.40
2023-07-14T19:11:13.494Z,4.18
2023-07-14T19:13:41.113Z,5.07
2023-07-14T19:16:18.176Z,3.67
2023-07-14T19:18:46.057Z,4.03
2023-07-14T19:21:16.210Z,4.93
2023-07-14T19:23:43.322Z,3.90
2023-07-14T19:26:11.716Z,4.03
2023-07-14T19:28:38.727Z,3.97
2023-07-14T19:31:17.036Z,4.45
2023-07-14T19:33:44.213Z,4.05
2023-07-14T19:36:11.244Z,4.47
2023-07-14T19:38:38.311Z,4.63
2023-07-14T19:41:06.454Z,3.83
2023-07-14T19:43:34.008Z,4.75
2023-07-14T19:46:02.562Z,5.70
2023-07-14T19:48:29.611Z,4.95
2023-07-14T19:50:58.195Z,4.75
2023-07-14T19:53:27.364Z,4.53
2023-07-14T19:55:55.413Z,4.50
2023-07-14T19:58:23.485Z,5.28
2023-07-14T20:00:52.184Z,4.25
2023-07-14T20:03:29.690Z,4.50
2023-07-14T20:05:57.647Z,4.60
2023-07-14T20:08:30.325Z,5.30
2023-07-14T20:11:00.844Z,4.70
2023-07-14T20:13:30.136Z,5.18
2023-07-14T20:16:00.120Z,3.95
2023-07-14T20:18:31.659Z,4.30
2023-07-14T20:20:59.719Z,4.25
2023-07-14T20:23:32.625Z,4.78
2023-07-14T20:26:01.109Z,4.43
2023-07-14T20:28:37.575Z,4.57
2023-07-14T20:31:13.553Z,5.40
2023-07-14T20:33:41.539Z,3.88
2023-07-14T20:36:14.957Z,3.40
2023-07-14T20:38:44.138Z,4.35
2023-07-14T20:41:28.061Z,4.57
2023-07-14T20:43:55.197Z,3.85
2023-07-14T20:46:25.125Z,3.65
2023-07-14T20:49:06.512Z,4.93
2023-07-14T20:51:39.947Z,3.92
2023-07-14T20:54:07.874Z,4.35
2023-07-14T20:56:34.975Z,4.70
2023-07-14T20:59:02.183Z,3.83
2023-07-14T21:01:32.402Z,3.97
2023-07-14T21:04:05.646Z,4.28
2023-07-14T21:06:32.661Z,3.97
2023-07-14T21:08:59.870Z,4.20
2023-07-14T21:11:29.752Z,3.50
2023-07-14T21:14:00.635Z,4.78
2023-07-14T21:16:30.205Z,5.15
2023-07-14T21:18:58.205Z,4.22
2023-07-14T21:21:31.998Z,4.38
2023-07-14T21:24:00.743Z,4.93
2023-07-14T21:26:29.650Z,5.15
2023-07-14T21:28:59.651Z,3.92
2023-07-14T21:31:33.674Z,5.15
2023-07-14T21:34:01.908Z,4.45
2023-07-14T21:36:29.226Z,4.15
2023-07-14T21:38:59.800Z,3.70
2023-07-14T21:41:27.089Z,3.50
2023-07-14T21:43:56.503Z,4.43
2023-07-14T21:46:24.560Z,4.28
2023-07-14T21:48:51.626Z,4.45
2023-07-14T21:51:27.207Z,4.10
2023-07-14T21:53:55.908Z,3.72
2023-07-14T21:56:23.692Z,4.30
2023-07-14T21:58:50.699Z,4.28
2023-07-14T22:01:36.150Z,5.45
2023-07-14T22:04:14.144Z,3.97
2023-07-14T22:06:41.235Z,3.92
2023-07-14T22:09:08.359Z,4.25
2023-07-14T22:11:35.457Z,4.65
2023-07-14T22:14:02.900Z,4.45
2023-07-14T22:16:30.493Z,3.70
2023-07-14T22:18:57.580Z,4.25
2023-07-14T22:21:28.726Z,4.22
2023-07-14T22:23:55.805Z,3.92
2023-07-14T22:26:24.814Z,4.57
2023-07-14T22:28:52.316Z,5.30
2023-07-14T22:31:23.450Z,5.05
2023-07-14T22:33:51.061Z,4.97
2023-07-14T22:36:18.923Z,4.80
2023-07-14T22:38:46.070Z,5.03
2023-07-14T22:41:29.525Z,4.20
2023-07-14T22:44:01.977Z,5.18
2023-07-14T22:46:29.310Z,4.53
2023-07-14T22:48:56.589Z,5.00
2023-07-14T22:51:27.274Z,4.60
2023-07-14T22:53:55.695Z,5.38
2023-07-14T22:56:23.308Z,4.25
2023-07-14T22:58:50.380Z,4.55
2023-07-14T23:01:29.391Z,4.22
2023-07-14T23:03:57.312Z,4.05
2023-07-14T23:06:25.275Z,3.75
2023-07-14T23:08:55.587Z,4.72
2023-07-14T23:11:29.655Z,4.05
2023-07-14T23:13:56.802Z,3.97
2023-07-14T23:16:25.446Z,4.25
2023-07-14T23:18:53.211Z,3.97
2023-07-14T23:21:32.261Z,3.38
2023-07-14T23:24:01.603Z,4.25
2023-07-14T23:26:30.867Z,3.38
2023-07-14T23:28:58.236Z,3.60
2023-07-14T23:31:32.403Z,3.78
2023-07-14T23:33:59.695Z,3.95
2023-07-14T23:36:27.652Z,3.80
2023-07-14T23:38:54.942Z,3.88
2023-07-14T23:41:22.030Z,4.20
2023-07-14T23:43:49.508Z,3.78
2023-07-14T23:46:16.889Z,3.90
2023-07-14T23:48:44.292Z,3.40
2023-07-14T23:51:30.828Z,4.57
2023-07-14T23:54:00.083Z,3.88
2023-07-14T23:56:29.415Z,3.60
2023-07-14T23:58:56.575Z,3.70
